ADDS METAR Data INFO
IDs: Format: Raw Decoded Include TAF

Data at: 0439 UTC 24 Apr 2018

KGLE 240435Z AUTO 28003KT 10SM CLR 13/10 A3007 RMK AO2 T01280099
KGLE 240415Z AUTO 00000KT 10SM CLR 14/10 A3007 RMK AO2 T01390098
KGLE 240355Z AUTO 00000KT 10SM CLR 14/10 A3006 RMK AO2 T01410099
KGLE 240335Z AUTO 00000KT 10SM CLR 15/10 A3006 RMK AO2 T01500096
KGLE 240315Z AUTO 31003KT 10SM CLR 16/10 A3006 RMK AO2 T01600095
KGLE 240255Z AUTO 32004KT 10SM CLR 16/10 A3005 RMK AO2 T01600097
KGLE 240235Z AUTO 31003KT 10SM CLR 16/10 A3005 RMK AO2 T01610096
KGLE 240215Z AUTO 31003KT 10SM CLR 17/10 A3004 RMK AO2 T01710096
KGLE 240155Z AUTO 33003KT 10SM CLR 17/10 A3003 RMK AO2 T01730099
KGLE 240135Z AUTO 32003KT 10SM CLR 18/11 A3003 RMK AO2 T01790105
KGLE 240115Z AUTO 34003KT 10SM CLR 19/10 A3002 RMK AO2 T01880101
KGLE 240055Z AUTO 00000KT 10SM SCT060 20/10 A3001 RMK AO2 T01990104
KGLE 240035Z AUTO 34003KT 10SM SCT060 21/10 A3001 RMK AO2 T02100103
KGLE 240015Z AUTO 35005KT 10SM SCT060 22/09 A3001 RMK AO2 T02170094
KGLE 232355Z AUTO 36006KT 10SM SCT060 22/10 A3001 RMK AO2 T02210095 10234 20193
KGLE 232335Z AUTO 36006KT 10SM SCT050 23/09 A3001 RMK AO2 T02270094
KGLE 232315Z AUTO 36007KT 10SM SCT050 23/10 A3001 RMK AO2 T02290096
KGLE 232255Z AUTO 33005KT 10SM SCT050 22/10 A3002 RMK AO2 T02150097
KGLE 232235Z AUTO 33010KT 10SM BKN050 23/10 A3002 RMK AO2 T02340095
KGLE 232215Z AUTO 33006KT 10SM BKN050 22/10 A3002 RMK AO2 T02200096
KGLE 232155Z AUTO 32008G15KT 10SM BKN050 23/10 A3002 RMK AO2 T02300098
KGLE 232135Z AUTO 36007G15KT 10SM BKN050 22/10 A3002 RMK AO2 T02210101
KGLE 232115Z AUTO 36007KT 320V020 10SM BKN050 22/10 A3003 RMK AO2 T02170101
KGLE 232055Z AUTO 03006KT 10SM BKN050 22/10 A3004 RMK AO2 T02150100
KGLE 232035Z AUTO 35008G14KT 10SM BKN050 21/10 A3005 RMK AO2 T02130100
KGLE 232015Z AUTO 33009G15KT 10SM OVC050 21/10 A3006 RMK AO2 T02100098
KGLE 231955Z AUTO 35006G14KT 10SM OVC048 21/10 A3007 RMK AO2 T02090099
KGLE 231935Z AUTO 35008KT 10SM BKN044 21/10 A3007 RMK AO2 T02060101
KGLE 231915Z AUTO 36011G16KT 10SM BKN042 BKN048 21/10 A3008 RMK AO2 T02080103
KGLE 231855Z AUTO 34009KT 10SM OVC040 20/10 A3009 RMK AO2 T02030102
KGLE 231835Z AUTO 35009G14KT 10SM BKN038 20/10 A3010 RMK AO2 T01970104
KGLE 231815Z AUTO 36012G15KT 10SM BKN036 SCT044 20/11 A3010 RMK AO2 T02030105
KGLE 231755Z AUTO 35007G17KT 10SM OVC036 19/10 A3011 RMK AO2 T01930101 10196 20095
KGLE 231735Z AUTO 34012G15KT 10SM BKN031 BKN038 18/10 A3012 RMK AO2 T01820101
KGLE 231715Z AUTO 34009G15KT 10SM BKN027 18/10 A3012 RMK AO2 T01780103
KGLE 231655Z AUTO 35010KT 10SM SCT025 17/10 A3012 RMK AO2 T01740103
KGLE 231635Z AUTO 01013G16KT 10SM SCT025 17/10 A3013 RMK AO2 T01710100
KGLE 231615Z AUTO 36011G18KT 10SM SCT021 17/10 A3013 RMK AO2 T01680101
KGLE 231555Z AUTO 36011G20KT 10SM SCT021 16/10 A3014 RMK AO2 T01560095
KGLE 231535Z AUTO 35012G16KT 10SM SCT021 16/10 A3013 RMK AO2 T01560095
KGLE 231515Z AUTO 02013G17KT 10SM BKN021 16/10 A3012 RMK AO2 T01590098
KGLE 231455Z AUTO 35013G18KT 10SM SCT019 15/10 A3012 RMK AO2 T01510097
KGLE 231435Z AUTO 35011G21KT 10SM SCT019 14/09 A3012 RMK AO2 T01440094
KGLE 231415Z AUTO 32014G18KT 10SM SCT019 14/09 A3012 RMK AO2 T01390092
KGLE 231355Z AUTO 33011G16KT 10SM CLR 14/09 A3012 RMK AO2 T01350094
KGLE 231335Z AUTO 33012G17KT 10SM CLR 13/09 A3012 RMK AO2 T01250094
KGLE 231315Z AUTO 31009KT 10SM CLR 12/09 A3011 RMK AO2 T01170093
KGLE 231255Z AUTO 31008KT 10SM CLR 11/09 A3011 RMK AO2 T01110090
KGLE 231235Z AUTO 30007KT 10SM CLR 11/09 A3010 RMK AO2 T01050087
KGLE 231215Z AUTO 31008KT 10SM CLR 10/09 A3010 RMK AO2 T01000085
KGLE 231155Z AUTO 30006KT 10SM CLR 10/08 A3009 RMK AO2 T00950081 10108 20090
KGLE 231135Z AUTO 29004KT 10SM SCT018 10/08 A3008 RMK AO2 T00950081
KGLE 231115Z AUTO 31006KT 10SM SCT018 10/08 A3008 RMK AO2 T00980082
KGLE 231055Z AUTO 31007KT 10SM SCT018 10/09 A3007 RMK AO2 T01010085
KGLE 231035Z AUTO 33007KT 10SM OVC018 11/09 A3006 RMK AO2 T01060087
KGLE 231015Z AUTO 33008KT 10SM OVC014 11/09 A3006 RMK AO2 T01070087
KGLE 230955Z AUTO 33008KT 10SM OVC012 11/09 A3006 RMK AO2 T01050086
KGLE 230935Z AUTO 35007KT 10SM OVC012 10/09 A3006 RMK AO2 T01010085
KGLE 230915Z AUTO 34007KT 10SM BKN012 10/08 A3006 RMK AO2 T00980082
KGLE 230855Z AUTO 34010KT 10SM SCT012 10/08 A3007 RMK AO2 T00960078
KGLE 230835Z AUTO 32010G14KT 10SM CLR 09/08 A3006 RMK AO2 T00940075
KGLE 230815Z AUTO 30007KT 10SM CLR 09/07 A3007 RMK AO2 T00910074
KGLE 230755Z AUTO 29004KT 10SM CLR 09/07 A3007 RMK AO2 T00930073
KGLE 230735Z AUTO 31005KT 10SM CLR 10/08 A3007 RMK AO2 T00970075
KGLE 230715Z AUTO 31005KT 10SM CLR 10/08 A3007 RMK AO2 T00960076
KGLE 230655Z AUTO 32005KT 10SM CLR 10/08 A3007 RMK AO2 T00980076
KGLE 230635Z AUTO 33004KT 10SM CLR 10/08 A3007 RMK AO2 T00950075
KGLE 230615Z AUTO 33005KT 10SM CLR 10/08 A3007 RMK AO2 T00970075
KGLE 230555Z AUTO 32003KT 10SM CLR 10/08 A3007 RMK AO2 T01010077 10166 20101 401790077
KGLE 230535Z AUTO 35005KT 10SM CLR 12/08 A3007 RMK AO2 T01170080
KGLE 230515Z AUTO 36005KT 10SM CLR 11/08 A3006 RMK AO2 T01130079
KGLE 230455Z AUTO 35005KT 10SM CLR 12/08 A3006 RMK AO2 T01160081
KGLE 230435Z AUTO 32005KT 10SM SCT060 12/08 A3006 RMK AO2 T01240082
KGLE 230415Z AUTO 32006KT 10SM SCT060 13/08 A3006 RMK AO2 T01250082
KGLE 230355Z AUTO 30005KT 10SM SCT060 13/08 A3007 RMK AO2 T01250084
KGLE 230335Z AUTO 29003KT 10SM BKN060 12/08 A3007 RMK AO2 T01240083
KGLE 230315Z AUTO 29004KT 10SM OVC060 14/08 A3007 RMK AO2 T01350083
KGLE 230255Z AUTO 34003KT 10SM OVC060 13/08 A3007 RMK AO2 T01300083
KGLE 230235Z AUTO 34005KT 10SM SCT050 OVC060 14/08 A3007 RMK AO2 T01380080
KGLE 230215Z AUTO 31007KT 10SM BKN048 OVC060 15/08 A3006 RMK AO2 T01460081
KGLE 230155Z AUTO 31005KT 10SM BKN050 OVC060 15/08 A3005 RMK AO2 T01500080
KGLE 230135Z AUTO 32004KT 10SM BKN050 OVC060 15/08 A3005 RMK AO2 T01520081
KGLE 230115Z AUTO 30004KT 10SM SCT048 OVC055 16/08 A3005 RMK AO2 T01570076
KGLE 230055Z AUTO 29006KT 10SM BKN048 OVC055 16/08 A3005 RMK AO2 T01600075
KGLE 230035Z AUTO 30007KT 10SM BKN047 OVC050 16/07 A3005 RMK AO2 T01620074
KGLE 230015Z AUTO 30010KT 10SM OVC050 17/07 A3004 RMK AO2 T01650074
KGLE 222355Z AUTO 30008KT 10SM SCT045 OVC060 17/07 A3004 RMK AO2 T01670074 10179 20145
KGLE 222335Z AUTO 30008KT 10SM SCT049 OVC060 17/07 A3004 RMK AO2 T01680074
KGLE 222315Z AUTO 30010KT 10SM SCT047 OVC060 17/07 A3005 RMK AO2 T01660073
KGLE 222255Z AUTO 32010KT 10SM SCT048 OVC050 17/07 A3004 RMK AO2 T01700071
KGLE 222235Z AUTO 30012KT 10SM OVC048 17/07 A3004 RMK AO2 T01660069
KGLE 222215Z AUTO 32012KT 10SM OVC046 17/07 A3004 RMK AO2 T01660069
KGLE 222155Z AUTO 31012G20KT 10SM BKN044 BKN050 17/07 A3005 RMK AO2 T01730066
KGLE 222135Z AUTO 30015G18KT 10SM SCT042 BKN050 18/07 A3005 RMK AO2 T01790068
KGLE 222055Z AUTO 31013G21KT 10SM BKN043 OVC049 17/07 A3006 RMK AO2 T01650065
KGLE 222035Z AUTO 32015G19KT 10SM SCT044 OVC049 17/06 A3007 RMK AO2 T01660062
KGLE 221955Z AUTO 33013G22KT 10SM BKN041 OVC049 16/06 A3007 RMK AO2 T01640062
KGLE 221915Z AUTO 32015G21KT 10SM BKN039 16/06 A3009 RMK AO2 T01610058
KGLE 221855Z AUTO 31013G21KT 10SM BKN039 OVC045 17/07 A3009 RMK AO2 T01660066
KGLE 221835Z AUTO 32011G18KT 10SM OVC037 15/06 A3010 RMK AO2 T01520059
KGLE 221815Z AUTO 29014G21KT 10SM OVC035 15/06 A3010 RMK AO2 T01490059
KGLE 221755Z AUTO 32013G23KT 10SM BKN031 BKN038 15/06 A3011 RMK AO2 T01510064 10151 20077
KGLE 221735Z AUTO 31013G20KT 10SM BKN031 15/06 A3011 RMK AO2 T01450060
KGLE 221715Z AUTO 32016KT 10SM OVC031 15/06 A3012 RMK AO2 T01450061
KGLE 221655Z AUTO 32012G20KT 10SM BKN029 14/06 A3012 RMK AO2 T01430064